Time;durP1;ratioP1;P1;durP2;ratioP2;P2;SDS_P1;SDS_P2;PMS_P1;PMS_P2;Temp;Humidity;BMP_temperature;BMP_pressure;BME280_temperature;BME280_humidity;BME280_pressure;Samples;Min_cycle;Max_cycle;Signal;HPM_P1;HPM_P2
2022/12/02 00:02:31;;;;;;;16.75;7.68;;;;;;;1.41;100.00;98248.06;5075174;28;20035;-76
2022/12/02 00:05:01;;;;;;;14.25;7.60;;;;;;;1.37;100.00;98249.00;5074770;28;20031;-76
2022/12/02 00:07:26;;;;;;;15.85;7.65;;;;;;;1.52;100.00;98256.69;5075007;28;20020;-77
2022/12/02 00:09:52;;;;;;;14.45;7.65;;;;;;;1.61;100.00;98249.50;5092747;28;20031;-76
2022/12/02 00:12:23;;;;;;;13.05;6.18;;;;;;;1.70;100.00;98247.63;5086003;28;20106;-77
2022/12/02 00:15:30;;;;;;;9.98;5.07;;;;;;;1.68;100.00;98238.88;5057815;28;20140;-74
2022/12/02 00:17:55;;;;;;;7.38;4.28;;;;;;;1.57;100.00;98224.09;5040882;28;20082;-74
2022/12/02 00:20:21;;;;;;;9.52;4.82;;;;;;;1.42;100.00;98205.88;5075538;28;20051;-74
2022/12/02 00:22:46;;;;;;;9.32;5.25;;;;;;;1.42;100.00;98210.28;5092892;28;20081;-75
2022/12/02 00:25:12;;;;;;;9.00;5.13;;;;;;;1.52;100.00;98223.28;5108441;28;20032;-75
2022/12/02 00:27:38;;;;;;;11.25;6.00;;;;;;;1.56;100.00;98219.72;5074832;28;20020;-75
2022/12/02 00:30:04;;;;;;;10.90;5.63;;;;;;;1.49;100.00;98225.09;5074600;28;20038;-76
2022/12/02 00:32:30;;;;;;;11.75;6.20;;;;;;;1.39;100.00;98205.91;5058182;28;20024;-75
2022/12/02 00:34:55;;;;;;;11.95;6.85;;;;;;;1.38;100.00;98212.09;5057602;28;20089;-75
2022/12/02 00:37:21;;;;;;;14.70;7.28;;;;;;;1.40;100.00;98212.94;5074389;28;20024;-75
2022/12/02 00:39:46;;;;;;;15.43;8.13;;;;;;;1.31;100.00;98207.81;5074789;28;20016;-75
2022/12/02 00:42:12;;;;;;;9.70;5.03;;;;;;;1.45;100.00;98218.13;5074318;28;20042;-75
2022/12/02 00:47:21;;;;;;;13.75;6.90;;;;;;;1.39;100.00;98218.22;5077088;28;20090;-74
2022/12/02 00:49:47;;;;;;;9.65;5.45;;;;;;;1.42;100.00;98216.41;5092627;28;20016;-75
2022/12/02 00:52:12;;;;;;;10.63;5.32;;;;;;;1.47;100.00;98219.88;5057382;28;20034;-75
2022/12/02 00:54:38;;;;;;;14.57;6.97;;;;;;;1.46;100.00;98220.75;5057455;28;20024;-75
2022/12/02 00:57:05;;;;;;;13.02;7.32;;;;;;;1.46;100.00;98220.75;5057392;28;20020;-76
2022/12/02 00:59:31;;;;;;;17.73;8.60;;;;;;;1.44;100.00;98214.66;5092642;28;20058;-76
2022/12/02 01:01:56;;;;;;;14.93;8.13;;;;;;;1.48;100.00;98218.97;5057325;28;20043;-76
2022/12/02 01:04:22;;;;;;;15.52;7.20;;;;;;;1.63;100.00;98226.63;5091906;28;20348;-76
2022/12/02 01:06:48;;;;;;;9.93;5.63;;;;;;;1.56;100.00;98214.47;5074081;28;20099;-73
2022/12/02 01:09:13;;;;;;;12.52;6.03;;;;;;;1.61;100.00;98217.00;5057334;28;20410;-75
2022/12/02 01:11:39;;;;;;;10.35;5.70;;;;;;;1.58;100.00;98207.38;5056331;28;20430;-74
2022/12/02 01:14:04;;;;;;;10.75;5.68;;;;;;;1.72;100.00;98208.94;5091732;28;20082;-74
2022/12/02 01:16:30;;;;;;;8.60;4.60;;;;;;;1.52;100.00;98194.31;5073433;28;20024;-74
2022/12/02 01:18:55;;;;;;;10.57;5.05;;;;;;;1.50;100.00;98187.31;5073660;28;20560;-75
2022/12/02 01:21:22;;;;;;;10.93;5.57;;;;;;;1.48;100.00;98189.09;5061930;28;20035;-74
2022/12/02 01:23:47;;;;;;;14.73;7.40;;;;;;;1.50;100.00;98198.75;5073783;28;20082;-74
2022/12/02 01:26:13;;;;;;;16.30;8.20;;;;;;;1.43;100.00;98202.34;5073508;28;20012;-73
2022/12/02 01:28:38;;;;;;;16.05;7.90;;;;;;;1.39;100.00;98199.78;5056674;28;20056;-74
2022/12/02 01:31:04;;;;;;;17.05;9.75;;;;;;;1.34;100.00;98197.22;5057124;28;20024;-74
2022/12/02 01:33:30;;;;;;;18.10;8.50;;;;;;;1.36;100.00;98200.69;5056473;28;20038;-74
2022/12/02 01:35:55;;;;;;;19.58;9.52;;;;;;;1.35;100.00;98206.88;5056732;28;20036;-74
2022/12/02 01:38:21;;;;;;;18.33;9.07;;;;;;;1.32;100.00;98198.16;5056590;28;20086;-73
2022/12/02 01:40:47;;;;;;;16.58;8.20;;;;;;;1.31;100.00;98202.53;5091491;28;20020;-73
2022/12/02 01:43:12;;;;;;;13.93;7.60;;;;;;;1.29;100.00;98204.34;5056596;28;20024;-74
2022/12/02 01:45:38;;;;;;;20.45;8.65;;;;;;;1.23;100.00;98212.31;5073374;28;20047;-73
2022/12/02 01:48:04;;;;;;;13.65;7.38;;;;;;;1.28;100.00;98218.41;5056799;28;20020;-74
2022/12/02 01:50:30;;;;;;;12.85;6.60;;;;;;;1.23;100.00;98214.94;5073428;28;20084;-73
2022/12/02 01:52:56;;;;;;;14.00;6.53;;;;;;;1.21;100.00;98211.47;5073047;28;20449;-73
2022/12/02 01:55:23;;;;;;;13.10;7.43;;;;;;;1.29;100.00;98220.16;5073291;28;20027;-73
2022/12/02 01:57:49;;;;;;;14.63;7.65;;;;;;;1.23;100.00;98214.94;5073001;28;20024;-73
2022/12/02 02:00:15;;;;;;;14.80;8.10;;;;;;;1.22;100.00;98213.22;5073217;28;20023;-73
2022/12/02 02:02:41;;;;;;;12.43;7.50;;;;;;;1.35;100.00;98227.97;5086876;28;20057;-73
2022/12/02 02:05:39;;;;;;;16.95;8.93;;;;;;;1.31;100.00;98231.53;5073277;28;20016;-74
2022/12/02 02:08:07;;;;;;;14.93;8.00;;;;;;;1.31;100.00;98233.28;5060127;28;20135;-75
2022/12/02 02:10:34;;;;;;;22.70;8.57;;;;;;;1.35;100.00;98235.88;5056349;28;20130;-73
2022/12/02 02:13:00;;;;;;;16.98;8.23;;;;;;;1.30;100.00;98235.03;5072887;28;20046;-73
2022/12/02 02:15:25;;;;;;;17.23;9.10;;;;;;;1.36;100.00;98240.22;5089706;28;20490;-73
2022/12/02 02:17:51;;;;;;;16.38;8.70;;;;;;;1.35;100.00;98238.50;5073038;28;20038;-73
2022/12/02 02:20:19;;;;;;;16.13;9.32;;;;;;;1.31;100.00;98238.56;5056074;28;20043;-74
2022/12/02 02:23:00;;;;;;;17.65;8.98;;;;;;;1.36;100.00;98236.72;5072794;28;20028;-73
2022/12/02 02:25:26;;;;;;;17.27;9.57;;;;;;;1.36;100.00;98242.88;5060290;28;20036;-73
2022/12/02 02:27:54;;;;;;;18.20;8.85;;;;;;;1.34;100.00;98228.84;5095444;28;20073;-73
2022/12/02 02:30:20;;;;;;;16.42;9.38;;;;;;;1.44;100.00;98254.19;5093812;28;20020;-74
2022/12/02 02:32:47;;;;;;;14.63;9.00;;;;;;;1.34;100.00;98239.38;5076878;28;20032;-74
2022/12/02 02:35:13;;;;;;;20.65;10.35;;;;;;;1.34;100.00;98243.78;5060038;28;20038;-74
2022/12/02 02:37:39;;;;;;;20.33;9.63;;;;;;;1.39;100.00;98250.72;5059959;28;20024;-74
2022/12/02 02:40:05;;;;;;;14.50;8.25;;;;;;;1.29;100.00;98241.22;5059713;28;20395;-74
2022/12/02 02:42:31;;;;;;;16.25;8.25;;;;;;;1.35;100.00;98240.25;5076909;28;20086;-74
2022/12/02 02:44:57;;;;;;;14.55;7.00;;;;;;;1.41;100.00;98241.06;5076806;28;20032;-74
2022/12/02 02:47:22;;;;;;;10.93;5.53;;;;;;;1.43;100.00;98239.25;5076748;28;20023;-73
2022/12/02 02:49:48;;;;;;;11.35;5.47;;;;;;;1.28;100.00;98226.31;5094602;28;20070;-74
2022/12/02 02:52:13;;;;;;;9.68;5.57;;;;;;;1.38;100.00;98233.19;5076443;28;20023;-73
2022/12/02 02:54:39;;;;;;;12.55;5.45;;;;;;;1.39;100.00;98232.28;5076431;28;20027;-74
2022/12/02 02:57:04;;;;;;;10.20;4.60;;;;;;;1.33;100.00;98223.59;5076167;28;20457;-73
2022/12/02 02:59:30;;;;;;;5.53;3.97;;;;;;;1.36;100.00;98221.78;5076453;28;20020;-73
2022/12/02 03:01:56;;;;;;;5.63;3.97;;;;;;;1.45;100.00;98236.56;5076497;28;20495;-73
2022/12/02 03:04:22;;;;;;;7.90;4.43;;;;;;;1.57;100.00;98239.91;5076079;28;20024;-74
2022/12/02 03:06:48;;;;;;;14.20;7.10;;;;;;;1.44;100.00;98225.19;5076054;28;20093;-74
2022/12/02 03:09:17;;;;;;;9.20;5.57;;;;;;;1.53;100.00;98232.97;5076104;28;20035;-74
2022/12/02 03:11:43;;;;;;;8.48;4.70;;;;;;;1.57;100.00;98232.00;5076289;28;20020;-74
2022/12/02 03:14:09;;;;;;;9.32;5.70;;;;;;;1.54;100.00;98228.53;5075833;28;20448;-73
2022/12/02 03:16:35;;;;;;;10.13;6.07;;;;;;;1.66;100.00;98243.31;5075916;28;20054;-74
2022/12/02 03:19:00;;;;;;;12.90;6.63;;;;;;;1.59;100.00;98237.25;5075965;28;20027;-74
2022/12/02 03:21:26;;;;;;;13.25;7.05;;;;;;;1.46;100.00;98222.50;5075985;28;20035;-73
2022/12/02 03:23:54;;;;;;;13.55;7.18;;;;;;;1.45;100.00;98226.91;5075861;28;20028;-73
2022/12/02 03:26:20;;;;;;;15.90;7.57;;;;;;;1.45;100.00;98232.19;5058972;28;20106;-74
2022/12/02 03:28:46;;;;;;;17.90;8.98;;;;;;;1.46;100.00;98244.47;5075879;28;20043;-73
2022/12/02 03:31:13;;;;;;;15.98;8.13;;;;;;;1.30;100.00;98224.50;5093641;28;20028;-73
2022/12/02 03:33:39;;;;;;;12.20;6.85;;;;;;;1.37;100.00;98244.63;5075671;28;20028;-74
2022/12/02 03:36:05;;;;;;;11.32;6.25;;;;;;;1.44;100.00;98256.81;5075383;28;20085;-73
2022/12/02 03:38:31;;;;;;;11.30;6.32;;;;;;;1.40;100.00;98247.19;5058346;28;20024;-73
2022/12/02 03:40:57;;;;;;;10.63;5.90;;;;;;;1.59;100.00;98267.13;5058900;28;20035;-74
2022/12/02 03:43:23;;;;;;;12.43;6.47;;;;;;;1.61;100.00;98261.81;5076089;28;20024;-73
2022/12/02 03:45:49;;;;;;;13.10;5.70;;;;;;;1.42;100.00;98253.31;5075419;28;20023;-73
2022/12/02 03:48:20;;;;;;;13.68;6.93;;;;;;;1.46;100.00;98255.03;5075607;28;20020;-74
2022/12/02 03:50:46;;;;;;;12.25;6.40;;;;;;;1.42;100.00;98249.81;5076250;28;20034;-74
2022/12/02 03:53:11;;;;;;;15.23;7.18;;;;;;;1.34;100.00;98247.28;5058741;28;20024;-74
2022/12/02 03:55:37;;;;;;;11.85;6.78;;;;;;;1.42;100.00;98247.16;5075640;28;20034;-74
2022/12/02 03:58:04;;;;;;;32.13;12.40;;;;;;;1.41;100.00;98255.97;5075278;28;20046;-74
2022/12/02 04:00:30;;;;;;;44.90;15.65;;;;;;;1.44;100.00;98259.44;5075394;28;20460;-73
2022/12/02 04:02:55;;;;;;;31.23;11.93;;;;;;;1.47;100.00;98267.31;5093149;28;20028;-74
2022/12/02 04:05:21;;;;;;;24.48;9.73;;;;;;;1.47;100.00;98277.84;5093540;28;20027;-73
2022/12/02 04:07:47;;;;;;;14.73;7.20;;;;;;;1.61;100.00;98267.97;5075439;28;20490;-73
2022/12/02 04:10:12;;;;;;;13.90;7.07;;;;;;;1.57;100.00;98263.63;5093180;28;20020;-74
2022/12/02 04:12:38;;;;;;;11.93;6.50;;;;;;;1.57;100.00;98270.66;5075310;28;20384;-74
2022/12/02 04:15:04;;;;;;;20.73;9.20;;;;;;;1.56;100.00;98264.53;5090254;28;20481;-74
2022/12/02 04:17:29;;;;;;;18.42;9.27;;;;;;;1.55;100.00;98268.06;5057674;28;20029;-73
2022/12/02 04:19:55;;;;;;;21.92;10.95;;;;;;;1.67;100.00;98281.94;5065919;28;20519;-73
2022/12/02 04:22:20;;;;;;;17.15;8.98;;;;;;;1.57;100.00;98268.91;5057408;28;20484;-73
2022/12/02 04:24:46;;;;;;;19.50;8.63;;;;;;;1.63;100.00;98279.34;5051869;28;20536;-73
2022/12/02 04:27:11;;;;;;;17.42;8.27;;;;;;;1.70;100.00;98276.63;5081215;28;20024;-72
2022/12/02 04:29:37;;;;;;;16.08;7.13;;;;;;;1.74;100.00;98278.31;5071740;28;20024;-73
2022/12/02 04:32:03;;;;;;;15.13;7.78;;;;;;;1.64;100.00;98265.28;5084318;28;20024;-73
2022/12/02 04:34:28;;;;;;;16.25;6.95;;;;;;;1.64;100.00;98273.19;5057658;28;20028;-74
2022/12/02 04:36:54;;;;;;;12.70;6.50;;;;;;;1.53;100.00;98268.97;5073782;28;20027;-74
2022/12/02 04:39:20;;;;;;;10.25;5.45;;;;;;;1.63;100.00;98274.06;5065372;28;20024;-75
2022/12/02 04:41:45;;;;;;;8.88;5.32;;;;;;;1.53;100.00;98267.22;5067558;28;20024;-73
2022/12/02 04:44:11;;;;;;;10.05;5.60;;;;;;;1.47;100.00;98267.31;5049306;28;20496;-73
2022/12/02 04:46:36;;;;;;;9.65;5.10;;;;;;;1.47;100.00;98271.72;5054790;28;20024;-72
2022/12/02 04:49:02;;;;;;;13.25;5.97;;;;;;;1.47;100.00;98271.72;5083232;28;20020;-75
2022/12/02 04:51:28;;;;;;;12.05;4.97;;;;;;;1.45;100.00;98270.84;5049124;28;20042;-74
2022/12/02 04:53:53;;;;;;;11.30;6.00;;;;;;;1.61;100.00;98283.78;5060278;28;20100;-74
2022/12/02 04:56:19;;;;;;;16.90;7.95;;;;;;;1.58;100.00;98275.94;5034791;28;20029;-73
2022/12/02 04:58:44;;;;;;;14.77;5.85;;;;;;;1.48;100.00;98271.66;5079024;28;20020;-76
2022/12/02 05:01:10;;;;;;;10.48;5.40;;;;;;;1.63;100.00;98279.34;5046968;28;20506;-74
2022/12/02 05:03:35;;;;;;;8.35;4.78;;;;;;;1.68;100.00;98270.50;5073418;28;20423;-77
2022/12/02 05:06:01;;;;;;;7.85;4.72;;;;;;;1.76;100.00;98274.75;5074181;28;20023;-75
2022/12/02 05:08:27;;;;;;;9.32;4.93;;;;;;;1.83;100.00;98270.28;5055519;28;20085;-79
2022/12/02 05:10:53;;;;;;;10.23;5.80;;;;;;;1.83;100.00;98270.28;5042463;28;20539;-76
2022/12/02 05:13:18;;;;;;;9.85;5.95;;;;;;;1.89;100.00;98264.91;5068406;28;20031;-77
2022/12/02 05:15:44;;;;;;;14.38;6.25;;;;;;;1.81;100.00;98250.97;5056643;28;20095;-79
2022/12/02 05:18:09;;;;;;;14.25;6.63;;;;;;;1.53;100.00;98232.09;5091346;28;20059;-78
2022/12/02 05:20:35;;;;;;;15.35;7.72;;;;;;;1.51;100.00;98237.34;5057195;28;20438;-80
2022/12/02 05:23:01;;;;;;;22.42;9.82;;;;;;;1.58;100.00;98257.47;5057286;28;20484;-79
2022/12/02 05:25:27;;;;;;;18.52;9.13;;;;;;;1.46;100.00;98256.78;5057162;28;20058;-80
2022/12/02 05:27:54;;;;;;;19.42;8.60;;;;;;;1.58;100.00;98259.22;5073720;28;20073;-79
2022/12/02 05:30:19;;;;;;;15.82;8.40;;;;;;;1.52;100.00;98262.84;5073830;28;20035;-77
2022/12/02 05:32:45;;;;;;;15.60;7.82;;;;;;;1.57;100.00;98270.66;5056823;28;20403;-79
2022/12/02 05:35:11;;;;;;;17.85;8.40;;;;;;;1.57;100.00;98268.91;5073656;28;20058;-79
2022/12/02 05:37:36;;;;;;;18.33;9.10;;;;;;;1.73;100.00;98273.94;5056662;28;20097;-78
2022/12/02 05:40:03;;;;;;;20.85;9.82;;;;;;;1.74;100.00;98270.41;5073787;28;20024;-77
2022/12/02 05:42:28;;;;;;;23.10;10.70;;;;;;;1.82;100.00;98272.03;5057074;28;20034;-78
2022/12/02 05:44:54;;;;;;;27.40;11.10;;;;;;;1.84;100.00;98265.00;5057022;28;20111;-79
2022/12/02 05:47:20;;;;;;;26.35;12.98;;;;;;;1.84;100.00;98266.75;5056912;28;20116;-78
2022/12/02 05:49:46;;;;;;;29.65;14.38;;;;;;;1.70;100.00;98244.97;5056762;28;20034;-81
2022/12/02 05:52:24;;;;;;;26.70;13.27;;;;;;;1.81;100.00;98264.16;5056925;28;20031;-78
2022/12/02 05:54:56;;;;;;;23.73;12.15;;;;;;;1.87;100.00;98270.22;5057145;28;20028;-80
2022/12/02 05:57:23;;;;;;;;;;;;;;;1.91;100.00;98274.53;5058386;28;20094;-81
2022/12/02 05:59:50;;;;;;;42.80;22.63;;;;;;;1.76;100.00;98263.34;5056409;28;19950;-75
2022/12/02 06:02:25;;;;;;;23.77;13.13;;;;;;;1.73;100.00;98266.03;5073306;28;20085;-73
2022/12/02 06:04:51;;;;;;;35.35;18.50;;;;;;;1.80;100.00;98278.22;5072999;28;20027;-72
2022/12/02 06:07:16;;;;;;;23.65;11.88;;;;;;;1.87;100.00;98287.78;5072865;28;20115;-74
2022/12/02 06:09:42;;;;;;;15.73;8.45;;;;;;;1.82;100.00;98279.06;5055748;28;20447;-73
2022/12/02 06:12:16;;;;;;;17.30;8.73;;;;;;;1.75;100.00;98280.09;5073076;28;20593;-71
2022/12/02 06:14:50;;;;;;;14.07;7.63;;;;;;;1.66;100.00;98277.59;5072540;28;20119;-73
2022/12/02 06:17:16;;;;;;;16.77;8.93;;;;;;;1.58;100.00;98278.56;5056234;28;20024;-74
2022/12/02 06:19:56;;;;;;;40.13;13.85;;;;;;;1.55;100.00;98281.25;5056329;28;20399;-75
2022/12/02 06:22:24;;;;;;;30.25;11.65;;;;;;;1.56;100.00;98285.63;5072570;28;20110;-76
2022/12/02 06:24:50;;;;;;;20.08;9.75;;;;;;;1.82;100.00;98301.03;5072639;28;20475;-74
2022/12/02 06:27:16;;;;;;;20.95;8.23;;;;;;;1.90;100.00;98298.31;5090700;28;20012;-72
2022/12/02 06:29:49;;;;;;;28.48;12.05;;;;;;;2.00;100.00;98294.63;5072343;28;20028;-73
2022/12/02 06:32:19;;;;;;;24.05;11.00;;;;;;;2.03;100.00;98284.88;5072934;28;20103;-73
2022/12/02 06:34:46;;;;;;;24.35;10.95;;;;;;;1.84;100.00;98280.81;5072435;28;21095;-72
2022/12/02 06:37:21;;;;;;;73.13;27.88;;;;;;;1.68;100.00;98265.25;5089199;28;20470;-72
2022/12/02 06:39:55;;;;;;;63.90;26.08;;;;;;;1.81;100.00;98272.06;5072467;28;20031;-73
2022/12/02 06:42:25;;;;;;;44.70;19.23;;;;;;;1.85;100.00;98282.53;5090684;28;20032;-72
2022/12/02 06:45:03;;;;;;;45.67;21.15;;;;;;;2.03;100.00;98295.41;5090421;28;20020;-72
2022/12/02 06:47:31;;;;;;;31.42;15.60;;;;;;;2.37;100.00;98306.28;5090500;28;20024;-73
2022/12/02 06:50:26;;;;;;;27.40;14.35;;;;;;;2.42;100.00;98299.19;5090602;28;20028;-73
2022/12/02 06:52:53;;;;;;;25.75;11.85;;;;;;;2.28;100.00;98287.97;5090485;28;20027;-72
2022/12/02 06:55:39;;;;;;;27.38;13.85;;;;;;;2.39;100.00;98278.13;5072647;28;20035;-73
2022/12/02 06:58:26;;;;;;;22.42;11.05;;;;;;;2.51;100.00;98277.88;5071829;28;20091;-73
2022/12/02 07:00:53;;;;;;;58.80;28.20;;;;;;;2.64;100.00;98268.84;5090301;28;20027;-73
2022/12/02 07:03:31;;;;;;;54.20;26.00;;;;;;;2.83;100.00;98268.50;5072373;28;20083;-73
2022/12/02 07:06:24;;;;;;;26.13;11.27;;;;;;;2.81;100.00;98247.38;5072149;28;20407;-79
2022/12/02 07:08:49;;;;;;;36.05;17.10;;;;;;;2.91;100.00;98245.41;5051305;28;20071;-78
2022/12/02 07:11:48;;;;;;;29.58;13.85;;;;;;;2.94;100.00;98229.50;5076635;28;20545;-79
2022/12/02 07:14:36;;;;;;;19.88;10.40;;;;;;;3.10;100.00;98226.50;5061362;28;20048;-80
2022/12/02 07:17:15;;;;;;;20.60;9.15;;;;;;;2.84;100.00;98218.25;5059475;28;20024;-81
2022/12/02 07:19:46;;;;;;;18.27;9.52;;;;;;;3.00;100.00;98237.28;5059593;28;20086;-79
2022/12/02 07:22:42;;;;;;;19.35;9.32;;;;;;;2.72;100.00;98218.50;5059621;28;20034;-80
2022/12/02 07:25:14;;;;;;;16.77;9.38;;;;;;;2.88;100.00;98216.41;5063331;28;20063;-79
2022/12/02 07:27:41;;;;;;;22.60;11.73;;;;;;;3.19;100.00;98223.66;5076287;28;20402;-80
2022/12/02 07:30:36;;;;;;;27.67;13.52;;;;;;;3.75;100.00;98234.72;5059102;28;20039;-80
2022/12/02 07:33:04;;;;;;;38.50;17.60;;;;;;;4.41;100.00;98229.47;5059132;28;20467;-79
2022/12/02 07:35:30;;;;;;;32.13;15.45;;;;;;;4.72;100.00;98166.81;5059594;28;20497;-79
2022/12/02 07:37:58;;;;;;;30.48;15.50;;;;;;;5.01;100.00;98141.22;5058699;28;20122;-80
2022/12/02 07:40:24;;;;;;;24.05;12.38;;;;;;;5.11;100.00;98166.53;5059084;28;20054;-80
2022/12/02 07:42:50;;;;;;;28.63;14.48;;;;;;;5.26;100.00;98123.66;5058743;28;20093;-80
2022/12/02 07:45:18;;;;;;;28.33;14.10;;;;;;;5.71;100.00;98132.75;5058845;28;20031;-80
2022/12/02 07:47:44;;;;;;;29.15;14.77;;;;;;;5.69;100.00;98116.00;5075566;28;20111;-79
2022/12/02 07:50:12;;;;;;;25.83;13.32;;;;;;;4.32;100.00;98050.53;5058758;28;20027;-80
2022/12/02 07:52:37;;;;;;;25.75;13.00;;;;;;;4.54;100.00;98093.16;5058698;28;20597;-79
2022/12/02 07:55:03;;;;;;;32.38;17.80;;;;;;;4.54;100.00;98093.16;5058315;28;20056;-78
2022/12/02 07:57:29;;;;;;;41.10;19.98;;;;;;;4.76;100.00;98096.03;5058479;28;20043;-80
2022/12/02 07:59:54;;;;;;;51.80;24.65;;;;;;;4.63;100.00;98066.41;5058404;28;20084;-80
2022/12/02 08:02:20;;;;;;;40.95;19.98;;;;;;;4.96;100.00;98100.72;5075515;28;20506;-81
2022/12/02 08:04:46;;;;;;;40.13;18.77;;;;;;;4.73;100.00;98081.13;5059391;28;20074;-80
2022/12/02 08:07:12;;;;;;;35.08;18.55;;;;;;;4.83;100.00;98079.91;5059052;28;20031;-79
2022/12/02 08:09:37;;;;;;;40.20;18.10;;;;;;;5.13;100.00;98088.69;5059699;28;20096;-78
2022/12/02 08:12:03;;;;;;;26.92;14.90;;;;;;;4.91;100.00;98074.38;5075508;28;20494;-78
2022/12/02 08:14:29;;;;;;;26.92;13.02;;;;;;;4.52;100.00;98070.28;5059256;28;20043;-80
2022/12/02 08:16:54;;;;;;;39.95;19.85;;;;;;;4.80;100.00;98085.28;5059968;28;20530;-80
2022/12/02 08:19:20;;;;;;;81.18;40.38;;;;;;;4.53;100.00;98042.88;5075424;28;20031;-79
2022/12/02 08:21:53;;;;;;;57.97;28.40;;;;;;;4.29;100.00;98065.66;5075070;28;20032;-80
2022/12/02 08:24:18;;;;;;;46.45;22.13;;;;;;;3.82;100.00;98049.31;5034805;28;20515;-80
2022/12/02 08:26:44;;;;;;;25.95;13.93;;;;;;;3.67;100.00;98076.19;5093342;28;20107;-78
2022/12/02 08:29:12;;;;;;;31.40;16.70;;;;;;;3.41;100.00;98060.13;5074873;28;20097;-79
2022/12/02 08:31:38;;;;;;;27.75;14.70;;;;;;;3.19;100.00;98065.09;5108422;28;20115;-78
2022/12/02 08:34:04;;;;;;;23.83;12.52;;;;;;;3.59;100.00;98098.44;5057787;28;20103;-78
2022/12/02 08:36:29;;;;;;;22.30;11.20;;;;;;;3.88;100.00;98095.06;5057715;28;20097;-79
2022/12/02 08:38:55;;;;;;;22.98;11.27;;;;;;;3.80;100.00;98088.19;5090998;28;20024;-77
2022/12/02 08:41:21;;;;;;;22.35;10.90;;;;;;;4.11;100.00;98092.66;5057516;28;20020;-77
2022/12/02 08:43:46;;;;;;;18.58;9.75;;;;;;;4.03;100.00;98070.81;5074417;28;20114;-78
2022/12/02 08:46:15;;;;;;;15.98;8.00;;;;;;;4.10;100.00;98082.97;5057197;28;20050;-78
2022/12/02 08:48:41;;;;;;;16.40;8.80;;;;;;;4.04;100.00;98081.34;5090947;28;20046;-78
2022/12/02 08:51:07;;;;;;;15.60;8.57;;;;;;;4.15;100.00;98081.06;5091064;28;20114;-78
2022/12/02 08:53:33;;;;;;;20.73;10.43;;;;;;;3.76;100.00;98062.72;5074641;28;20039;-78
2022/12/02 08:55:58;;;;;;;18.45;10.05;;;;;;;4.16;100.00;98080.13;5090796;28;20028;-77
2022/12/02 08:58:24;;;;;;;32.95;14.63;;;;;;;3.82;100.00;98054.59;5057433;28;20038;-78
2022/12/02 09:00:49;;;;;;;22.27;11.35;;;;;;;4.15;100.00;98065.19;5057364;28;20104;-77
2022/12/02 09:03:15;;;;;;;24.75;12.15;;;;;;;4.08;100.00;98045.09;5057370;28;20065;-77
2022/12/02 09:05:43;;;;;;;38.33;13.45;;;;;;;3.95;100.00;98041.91;5057460;28;20085;-77
2022/12/02 09:08:09;;;;;;;18.52;8.90;;;;;;;3.92;100.00;98054.34;5073652;28;20119;-78
2022/12/02 09:10:35;;;;;;;18.35;9.63;;;;;;;3.82;100.00;98053.72;5057161;28;20028;-78
2022/12/02 09:13:00;;;;;;;18.13;10.38;;;;;;;4.06;100.00;98066.28;5057069;28;20035;-78
2022/12/02 09:15:26;;;;;;;20.45;10.45;;;;;;;4.20;100.00;98065.91;5073358;28;20044;-79
2022/12/02 09:17:51;;;;;;;17.92;9.77;;;;;;;4.16;100.00;98056.31;5057692;28;20476;-78
2022/12/02 09:20:18;;;;;;;21.83;11.07;;;;;;;4.13;100.00;98049.34;5073745;28;20051;-78
2022/12/02 09:22:44;;;;;;;23.08;12.63;;;;;;;3.91;100.00;98027.03;5056876;28;20024;-78
2022/12/02 09:25:10;;;;;;;22.60;11.23;;;;;;;4.09;100.00;98052.13;5057008;28;20501;-78
2022/12/02 09:27:36;;;;;;;22.70;10.95;;;;;;;3.69;100.00;97989.72;5056622;28;20481;-78
2022/12/02 09:30:03;;;;;;;20.13;10.55;;;;;;;4.04;100.00;98027.53;5056851;28;20032;-78
2022/12/02 09:32:28;;;;;;;15.60;8.52;;;;;;;3.85;100.00;97990.16;5054924;28;20031;-78
2022/12/02 09:34:54;;;;;;;16.30;8.88;;;;;;;3.98;100.00;98023.31;5056861;28;20024;-78
2022/12/02 09:37:20;;;;;;;17.50;10.27;;;;;;;3.95;100.00;98027.81;5056557;28;20043;-78
2022/12/02 09:39:47;;;;;;;14.27;8.38;;;;;;;3.93;100.00;97997.88;5056669;28;20024;-78
2022/12/02 09:42:13;;;;;;;14.43;8.98;;;;;;;3.95;100.00;97994.28;5056826;28;20036;-78
2022/12/02 09:44:39;;;;;;;12.32;7.43;;;;;;;3.94;100.00;97997.00;5055915;28;20054;-76
2022/12/02 09:47:05;;;;;;;10.23;5.80;;;;;;;4.06;100.00;97994.00;5074890;28;20024;-76
2022/12/02 09:49:31;;;;;;;12.25;6.60;;;;;;;4.31;100.00;98018.81;5056854;28;20035;-78
2022/12/02 09:51:59;;;;;;;14.68;5.60;;;;;;;4.25;100.00;98021.63;5056221;28;20040;-78
2022/12/02 09:54:24;;;;;;;11.18;6.20;;;;;;;4.11;100.00;97982.34;5056158;28;20040;-78
2022/12/02 09:56:50;;;;;;;12.05;6.00;;;;;;;3.69;100.00;97957.97;5056281;28;20526;-78
2022/12/02 09:59:16;;;;;;;11.85;6.18;;;;;;;4.04;100.00;97996.66;5090011;28;20028;-78
2022/12/02 10:01:44;;;;;;;13.60;7.72;;;;;;;4.48;100.00;97986.53;5055910;28;20030;-77
2022/12/02 10:04:12;;;;;;;16.00;8.50;;;;;;;4.92;100.00;97997.44;5056286;28;20028;-77
2022/12/02 10:06:37;;;;;;;15.65;8.50;;;;;;;5.01;100.00;97983.06;5056253;28;20027;-77
2022/12/02 10:09:03;;;;;;;17.08;9.00;;;;;;;5.34;100.00;97981.03;5073597;28;20027;-78
2022/12/02 10:11:33;;;;;;;21.70;11.25;;;;;;;5.45;100.00;97973.56;5072710;28;20560;-77
2022/12/02 10:14:01;;;;;;;19.67;11.23;;;;;;;5.41;100.00;97979.91;5056481;28;20052;-77
2022/12/02 10:16:27;;;;;;;15.68;8.35;;;;;;;5.46;100.00;97962.03;5055932;28;20514;-77
2022/12/02 10:19:00;;;;;;;15.75;8.25;;;;;;;5.82;100.00;97952.75;5089634;28;20030;-78
2022/12/02 10:21:25;;;;;;;17.23;9.52;;;;;;;5.75;100.00;97953.91;5089340;28;20081;-77
2022/12/02 10:23:52;;;;;;;19.88;10.20;;;;;;;6.16;100.00;97972.78;5056049;28;20483;-79
2022/12/02 10:26:18;;;;;;;17.35;9.13;;;;;;;6.18;100.00;97939.09;5072565;28;20503;-78
2022/12/02 10:28:58;;;;;;;26.98;12.73;;;;;;;5.56;100.00;97934.28;5072707;28;20020;-78
2022/12/02 10:31:24;;;;;;;39.47;18.95;;;;;;;5.89;100.00;97946.34;5072806;28;20050;-78
2022/12/02 10:33:56;;;;;;;74.47;32.15;;;;;;;5.84;100.00;97940.31;5072619;28;20534;-76
2022/12/02 10:36:35;;;;;;;58.70;26.23;;;;;;;5.85;100.00;97958.00;5055766;28;20572;-79
2022/12/02 10:39:21;;;;;;;24.52;11.43;;;;;;;5.94;100.00;97944.38;5072585;28;20032;-78
2022/12/02 10:41:48;;;;;;;25.23;12.30;;;;;;;5.97;100.00;97936.31;5089865;28;20028;-78
2022/12/02 10:44:19;;;;;;;21.65;10.95;;;;;;;5.48;100.00;97908.00;5090044;28;20028;-78
2022/12/02 10:46:45;;;;;;;25.45;12.40;;;;;;;4.91;100.00;97897.66;5051403;28;20027;-77
2022/12/02 10:49:27;;;;;;;25.10;12.45;;;;;;;4.98;100.00;97932.78;5059572;28;20120;-78
2022/12/02 10:51:54;;;;;;;23.20;12.15;;;;;;;4.82;100.00;97921.84;5059651;28;20028;-78
2022/12/02 10:54:30;;;;;;;19.60;10.95;;;;;;;4.71;100.00;97926.59;5093201;28;20032;-78
2022/12/02 10:56:56;;;;;;;20.45;11.20;;;;;;;4.70;100.00;97930.19;5059580;28;20035;-78
2022/12/02 10:59:23;;;;;;;23.83;12.20;;;;;;;4.53;100.00;97932.50;5059514;28;20089;-78
2022/12/02 11:01:48;;;;;;;23.48;12.55;;;;;;;4.52;100.00;97938.72;5059205;28;20110;-78
2022/12/02 11:04:14;;;;;;;15.95;7.50;;;;;;;4.42;100.00;97950.50;5076417;28;20114;-78
2022/12/02 11:06:42;;;;;;;22.17;10.60;;;;;;;4.64;100.00;97950.72;5075778;28;20107;-78
2022/12/02 11:09:18;;;;;;;16.90;8.65;;;;;;;4.63;100.00;97944.53;5092885;28;20561;-78
2022/12/02 11:11:43;;;;;;;11.55;7.05;;;;;;;4.52;100.00;97948.44;5058912;28;20475;-78
2022/12/02 11:14:30;;;;;;;14.15;7.88;;;;;;;4.64;100.00;97967.47;5059056;28;20143;-78
2022/12/02 11:17:12;;;;;;;12.32;7.40;;;;;;;4.66;100.00;97952.38;5061551;28;20044;-78
2022/12/02 11:19:42;;;;;;;11.82;7.10;;;;;;;4.74;100.00;97958.28;5058974;28;20032;-78
2022/12/02 11:22:45;;;;;;;15.65;8.55;;;;;;;4.48;100.00;97955.63;5076029;28;20024;-79
2022/12/02 11:25:29;;;;;;;;;;;;;;;4.56;100.00;97973.91;5076265;28;20024;-78
2022/12/02 11:28:16;;;;;;;18.55;8.73;;;;;;;4.51;100.00;97979.38;5075553;28;20387;-77
2022/12/02 11:30:42;;;;;;;24.58;9.80;;;;;;;4.58;100.00;97966.78;5075318;28;20560;-79
2022/12/02 11:33:13;;;;;;;16.02;8.65;;;;;;;4.34;100.00;97963.97;5068952;28;20028;-79